sensor_id;sensor_type;location;lat;lon;timestamp;P1;durP1;ratioP1;P2;durP2;ratioP2
4547;SDS011;2286;51.570;7.090;2022-07-18T00:01:54;2.37;;;1.87;;
4547;SDS011;2286;51.570;7.090;2022-07-18T00:04:21;2.27;;;2.07;;
4547;SDS011;2286;51.570;7.090;2022-07-18T00:06:48;4.17;;;2.00;;
4547;SDS011;2286;51.570;7.090;2022-07-18T00:09:16;6.77;;;2.33;;
4547;SDS011;2286;51.570;7.090;2022-07-18T00:11:44;4.50;;;2.30;;
4547;SDS011;2286;51.570;7.090;2022-07-18T00:14:11;3.07;;;1.93;;
4547;SDS011;2286;51.570;7.090;2022-07-18T00:16:38;3.50;;;1.90;;
4547;SDS011;2286;51.570;7.090;2022-07-18T00:19:05;2.77;;;2.00;;
4547;SDS011;2286;51.570;7.090;2022-07-18T00:21:32;2.73;;;1.70;;
4547;SDS011;2286;51.570;7.090;2022-07-18T00:24:00;2.30;;;2.10;;
4547;SDS011;2286;51.570;7.090;2022-07-18T00:26:28;3.17;;;2.07;;
4547;SDS011;2286;51.570;7.090;2022-07-18T00:28:55;3.80;;;2.13;;
4547;SDS011;2286;51.570;7.090;2022-07-18T00:31:22;2.37;;;1.97;;
4547;SDS011;2286;51.570;7.090;2022-07-18T00:33:48;3.07;;;2.27;;
4547;SDS011;2286;51.570;7.090;2022-07-18T00:36:15;4.80;;;2.30;;
4547;SDS011;2286;51.570;7.090;2022-07-18T00:38:42;3.57;;;2.07;;
4547;SDS011;2286;51.570;7.090;2022-07-18T00:41:09;2.60;;;2.10;;
4547;SDS011;2286;51.570;7.090;2022-07-18T00:43:40;4.10;;;2.00;;
4547;SDS011;2286;51.570;7.090;2022-07-18T00:46:07;3.07;;;2.30;;
4547;SDS011;2286;51.570;7.090;2022-07-18T00:48:36;3.60;;;2.00;;
4547;SDS011;2286;51.570;7.090;2022-07-18T00:51:03;6.53;;;1.70;;
4547;SDS011;2286;51.570;7.090;2022-07-18T00:53:30;3.67;;;2.10;;
4547;SDS011;2286;51.570;7.090;2022-07-18T00:55:57;2.60;;;1.87;;
4547;SDS011;2286;51.570;7.090;2022-07-18T00:58:25;3.17;;;1.70;;
4547;SDS011;2286;51.570;7.090;2022-07-18T01:00:53;3.03;;;1.50;;
4547;SDS011;2286;51.570;7.090;2022-07-18T01:03:38;4.60;;;1.87;;
4547;SDS011;2286;51.570;7.090;2022-07-18T01:06:05;3.80;;;2.30;;
4547;SDS011;2286;51.570;7.090;2022-07-18T01:08:32;12.20;;;2.97;;
4547;SDS011;2286;51.570;7.090;2022-07-18T01:11:00;8.07;;;2.90;;
4547;SDS011;2286;51.570;7.090;2022-07-18T01:13:27;3.40;;;2.27;;
4547;SDS011;2286;51.570;7.090;2022-07-18T01:15:55;2.30;;;2.07;;
4547;SDS011;2286;51.570;7.090;2022-07-18T01:18:22;3.33;;;2.17;;
4547;SDS011;2286;51.570;7.090;2022-07-18T01:20:51;4.60;;;2.20;;
4547;SDS011;2286;51.570;7.090;2022-07-18T01:23:18;3.17;;;1.77;;
4547;SDS011;2286;51.570;7.090;2022-07-18T01:25:44;3.67;;;1.47;;
4547;SDS011;2286;51.570;7.090;2022-07-18T01:28:12;4.20;;;2.00;;
4547;SDS011;2286;51.570;7.090;2022-07-18T01:30:39;4.60;;;2.20;;
4547;SDS011;2286;51.570;7.090;2022-07-18T01:33:06;3.70;;;2.50;;
4547;SDS011;2286;51.570;7.090;2022-07-18T01:35:32;3.50;;;2.10;;
4547;SDS011;2286;51.570;7.090;2022-07-18T01:38:01;3.57;;;2.37;;
4547;SDS011;2286;51.570;7.090;2022-07-18T01:40:29;8.13;;;2.37;;
4547;SDS011;2286;51.570;7.090;2022-07-18T01:42:56;2.67;;;2.47;;
4547;SDS011;2286;51.570;7.090;2022-07-18T01:45:24;2.77;;;2.00;;
4547;SDS011;2286;51.570;7.090;2022-07-18T01:47:50;4.30;;;2.70;;
4547;SDS011;2286;51.570;7.090;2022-07-18T01:50:17;3.30;;;2.77;;
4547;SDS011;2286;51.570;7.090;2022-07-18T01:52:44;3.30;;;1.90;;
4547;SDS011;2286;51.570;7.090;2022-07-18T01:55:13;3.10;;;1.97;;
4547;SDS011;2286;51.570;7.090;2022-07-18T01:57:40;6.37;;;2.23;;
4547;SDS011;2286;51.570;7.090;2022-07-18T02:00:09;2.60;;;2.17;;
4547;SDS011;2286;51.570;7.090;2022-07-18T02:02:37;5.20;;;2.30;;
4547;SDS011;2286;51.570;7.090;2022-07-18T02:05:04;3.93;;;2.60;;
4547;SDS011;2286;51.570;7.090;2022-07-18T02:07:33;3.77;;;2.30;;
4547;SDS011;2286;51.570;7.090;2022-07-18T02:10:03;5.43;;;2.10;;
4547;SDS011;2286;51.570;7.090;2022-07-18T02:12:32;6.83;;;2.90;;
4547;SDS011;2286;51.570;7.090;2022-07-18T02:14:59;3.93;;;2.27;;
4547;SDS011;2286;51.570;7.090;2022-07-18T02:17:26;7.43;;;2.70;;
4547;SDS011;2286;51.570;7.090;2022-07-18T02:19:53;3.30;;;2.40;;
4547;SDS011;2286;51.570;7.090;2022-07-18T02:22:20;2.97;;;2.67;;
4547;SDS011;2286;51.570;7.090;2022-07-18T02:24:47;2.43;;;2.00;;
4547;SDS011;2286;51.570;7.090;2022-07-18T02:27:13;6.30;;;2.77;;
4547;SDS011;2286;51.570;7.090;2022-07-18T02:29:42;4.13;;;2.50;;
4547;SDS011;2286;51.570;7.090;2022-07-18T02:32:09;3.80;;;2.00;;
4547;SDS011;2286;51.570;7.090;2022-07-18T02:34:36;2.97;;;2.73;;
4547;SDS011;2286;51.570;7.090;2022-07-18T02:37:04;4.43;;;3.00;;
4547;SDS011;2286;51.570;7.090;2022-07-18T02:39:30;3.73;;;2.47;;
4547;SDS011;2286;51.570;7.090;2022-07-18T02:41:57;4.73;;;2.50;;
4547;SDS011;2286;51.570;7.090;2022-07-18T02:44:26;3.97;;;3.17;;
4547;SDS011;2286;51.570;7.090;2022-07-18T02:46:54;6.30;;;2.47;;
4547;SDS011;2286;51.570;7.090;2022-07-18T02:49:21;3.27;;;2.63;;
4547;SDS011;2286;51.570;7.090;2022-07-18T02:51:57;3.13;;;2.70;;
4547;SDS011;2286;51.570;7.090;2022-07-18T02:54:25;5.13;;;2.83;;
4547;SDS011;2286;51.570;7.090;2022-07-18T02:56:52;4.07;;;2.93;;
4547;SDS011;2286;51.570;7.090;2022-07-18T02:59:20;5.90;;;2.57;;
4547;SDS011;2286;51.570;7.090;2022-07-18T03:01:47;2.90;;;2.70;;
4547;SDS011;2286;51.570;7.090;2022-07-18T03:04:16;5.70;;;2.73;;
4547;SDS011;2286;51.570;7.090;2022-07-18T03:06:44;3.90;;;3.27;;
4547;SDS011;2286;51.570;7.090;2022-07-18T03:09:11;5.50;;;3.30;;
4547;SDS011;2286;51.570;7.090;2022-07-18T03:11:38;5.33;;;2.90;;
4547;SDS011;2286;51.570;7.090;2022-07-18T03:14:05;4.33;;;3.40;;
4547;SDS011;2286;51.570;7.090;2022-07-18T03:16:32;4.17;;;3.40;;
4547;SDS011;2286;51.570;7.090;2022-07-18T03:18:59;5.07;;;2.93;;
4547;SDS011;2286;51.570;7.090;2022-07-18T03:21:27;8.63;;;2.60;;
4547;SDS011;2286;51.570;7.090;2022-07-18T03:23:55;8.03;;;3.20;;
4547;SDS011;2286;51.570;7.090;2022-07-18T03:26:22;3.50;;;2.93;;
4547;SDS011;2286;51.570;7.090;2022-07-18T03:28:49;4.47;;;2.80;;
4547;SDS011;2286;51.570;7.090;2022-07-18T03:31:16;4.63;;;2.70;;
4547;SDS011;2286;51.570;7.090;2022-07-18T03:33:42;2.80;;;2.60;;
4547;SDS011;2286;51.570;7.090;2022-07-18T03:36:09;4.33;;;2.90;;
4547;SDS011;2286;51.570;7.090;2022-07-18T03:38:38;5.67;;;3.30;;
4547;SDS011;2286;51.570;7.090;2022-07-18T03:41:08;4.43;;;3.17;;
4547;SDS011;2286;51.570;7.090;2022-07-18T03:43:35;3.77;;;2.80;;
4547;SDS011;2286;51.570;7.090;2022-07-18T03:46:02;3.20;;;2.63;;
4547;SDS011;2286;51.570;7.090;2022-07-18T03:48:29;5.03;;;2.90;;
4547;SDS011;2286;51.570;7.090;2022-07-18T03:50:56;5.30;;;3.03;;
4547;SDS011;2286;51.570;7.090;2022-07-18T03:53:23;4.20;;;3.20;;
4547;SDS011;2286;51.570;7.090;2022-07-18T03:55:52;4.40;;;2.70;;
4547;SDS011;2286;51.570;7.090;2022-07-18T03:58:19;4.00;;;3.03;;
4547;SDS011;2286;51.570;7.090;2022-07-18T04:00:46;8.77;;;3.37;;
4547;SDS011;2286;51.570;7.090;2022-07-18T04:03:13;5.77;;;3.50;;
4547;SDS011;2286;51.570;7.090;2022-07-18T04:05:40;5.03;;;3.37;;
4547;SDS011;2286;51.570;7.090;2022-07-18T04:08:07;5.60;;;3.50;;
4547;SDS011;2286;51.570;7.090;2022-07-18T04:10:33;3.07;;;2.73;;
4547;SDS011;2286;51.570;7.090;2022-07-18T04:13:02;5.17;;;3.00;;
4547;SDS011;2286;51.570;7.090;2022-07-18T04:15:29;3.47;;;2.90;;
4547;SDS011;2286;51.570;7.090;2022-07-18T04:17:56;4.93;;;3.17;;
4547;SDS011;2286;51.570;7.090;2022-07-18T04:20:23;4.70;;;3.20;;
4547;SDS011;2286;51.570;7.090;2022-07-18T04:22:51;5.50;;;3.77;;
4547;SDS011;2286;51.570;7.090;2022-07-18T04:25:19;6.47;;;2.93;;
4547;SDS011;2286;51.570;7.090;2022-07-18T04:27:47;7.27;;;2.80;;
4547;SDS011;2286;51.570;7.090;2022-07-18T04:30:16;4.80;;;3.30;;
4547;SDS011;2286;51.570;7.090;2022-07-18T04:32:44;5.67;;;3.97;;
4547;SDS011;2286;51.570;7.090;2022-07-18T04:35:11;7.67;;;3.50;;
4547;SDS011;2286;51.570;7.090;2022-07-18T04:37:38;12.10;;;3.53;;
4547;SDS011;2286;51.570;7.090;2022-07-18T04:40:06;4.87;;;2.97;;
4547;SDS011;2286;51.570;7.090;2022-07-18T04:42:35;3.90;;;3.60;;
4547;SDS011;2286;51.570;7.090;2022-07-18T04:45:02;6.50;;;3.50;;
4547;SDS011;2286;51.570;7.090;2022-07-18T04:47:32;8.13;;;4.40;;
4547;SDS011;2286;51.570;7.090;2022-07-18T04:49:59;6.30;;;3.17;;
4547;SDS011;2286;51.570;7.090;2022-07-18T04:52:26;2.83;;;2.63;;
4547;SDS011;2286;51.570;7.090;2022-07-18T04:54:53;4.40;;;3.00;;
4547;SDS011;2286;51.570;7.090;2022-07-18T04:57:20;4.87;;;3.03;;
4547;SDS011;2286;51.570;7.090;2022-07-18T04:59:46;4.33;;;3.43;;
4547;SDS011;2286;51.570;7.090;2022-07-18T05:02:13;5.17;;;3.10;;
4547;SDS011;2286;51.570;7.090;2022-07-18T05:04:41;5.20;;;3.03;;
4547;SDS011;2286;51.570;7.090;2022-07-18T05:07:08;4.87;;;3.03;;
4547;SDS011;2286;51.570;7.090;2022-07-18T05:09:35;7.93;;;4.23;;
4547;SDS011;2286;51.570;7.090;2022-07-18T05:12:02;5.23;;;3.20;;
4547;SDS011;2286;51.570;7.090;2022-07-18T05:14:29;5.20;;;3.47;;
4547;SDS011;2286;51.570;7.090;2022-07-18T05:16:56;3.53;;;2.90;;
4547;SDS011;2286;51.570;7.090;2022-07-18T05:19:23;9.07;;;3.30;;
4547;SDS011;2286;51.570;7.090;2022-07-18T05:21:51;3.70;;;3.13;;
4547;SDS011;2286;51.570;7.090;2022-07-18T05:24:18;5.07;;;3.37;;
4547;SDS011;2286;51.570;7.090;2022-07-18T05:26:45;9.23;;;3.87;;
4547;SDS011;2286;51.570;7.090;2022-07-18T05:29:12;4.93;;;3.70;;
4547;SDS011;2286;51.570;7.090;2022-07-18T05:31:39;7.57;;;3.20;;
4547;SDS011;2286;51.570;7.090;2022-07-18T05:34:06;6.83;;;3.30;;
4547;SDS011;2286;51.570;7.090;2022-07-18T05:36:33;8.03;;;3.33;;
4547;SDS011;2286;51.570;7.090;2022-07-18T05:39:02;6.13;;;3.30;;
4547;SDS011;2286;51.570;7.090;2022-07-18T05:41:29;9.10;;;3.43;;
4547;SDS011;2286;51.570;7.090;2022-07-18T05:43:56;5.00;;;3.17;;
4547;SDS011;2286;51.570;7.090;2022-07-18T05:46:23;6.83;;;3.63;;
4547;SDS011;2286;51.570;7.090;2022-07-18T05:48:49;6.17;;;3.87;;
4547;SDS011;2286;51.570;7.090;2022-07-18T05:51:17;10.33;;;4.03;;
4547;SDS011;2286;51.570;7.090;2022-07-18T05:53:44;8.50;;;3.93;;
4547;SDS011;2286;51.570;7.090;2022-07-18T05:56:12;5.40;;;2.80;;
4547;SDS011;2286;51.570;7.090;2022-07-18T05:58:39;4.53;;;3.23;;
4547;SDS011;2286;51.570;7.090;2022-07-18T06:01:06;6.00;;;3.37;;
4547;SDS011;2286;51.570;7.090;2022-07-18T06:03:33;5.90;;;3.07;;
4547;SDS011;2286;51.570;7.090;2022-07-18T06:06:00;6.10;;;3.00;;
4547;SDS011;2286;51.570;7.090;2022-07-18T06:08:27;4.90;;;2.73;;
4547;SDS011;2286;51.570;7.090;2022-07-18T06:10:54;5.57;;;3.20;;
4547;SDS011;2286;51.570;7.090;2022-07-18T06:13:22;5.63;;;3.20;;
4547;SDS011;2286;51.570;7.090;2022-07-18T06:15:49;6.00;;;2.90;;
4547;SDS011;2286;51.570;7.090;2022-07-18T06:18:16;7.90;;;2.80;;
4547;SDS011;2286;51.570;7.090;2022-07-18T06:20:43;11.83;;;3.03;;
4547;SDS011;2286;51.570;7.090;2022-07-18T06:23:09;12.63;;;2.63;;
4547;SDS011;2286;51.570;7.090;2022-07-18T06:25:36;6.80;;;2.70;;
4547;SDS011;2286;51.570;7.090;2022-07-18T06:28:03;10.90;;;3.03;;
4547;SDS011;2286;51.570;7.090;2022-07-18T06:30:31;9.30;;;2.80;;
4547;SDS011;2286;51.570;7.090;2022-07-18T06:32:58;8.17;;;3.07;;
4547;SDS011;2286;51.570;7.090;2022-07-18T06:35:28;7.20;;;3.00;;
4547;SDS011;2286;51.570;7.090;2022-07-18T06:37:55;7.50;;;2.47;;
4547;SDS011;2286;51.570;7.090;2022-07-18T06:40:22;5.23;;;2.37;;
4547;SDS011;2286;51.570;7.090;2022-07-18T06:42:50;13.03;;;3.10;;
4547;SDS011;2286;51.570;7.090;2022-07-18T06:45:17;13.90;;;2.87;;
4547;SDS011;2286;51.570;7.090;2022-07-18T06:47:45;8.00;;;2.50;;
4547;SDS011;2286;51.570;7.090;2022-07-18T06:50:12;6.20;;;2.27;;
4547;SDS011;2286;51.570;7.090;2022-07-18T06:52:40;6.33;;;2.40;;
4547;SDS011;2286;51.570;7.090;2022-07-18T06:55:08;7.43;;;2.30;;
4547;SDS011;2286;51.570;7.090;2022-07-18T06:57:36;5.23;;;2.87;;
4547;SDS011;2286;51.570;7.090;2022-07-18T07:00:04;10.03;;;2.40;;
4547;SDS011;2286;51.570;7.090;2022-07-18T07:02:33;10.13;;;2.80;;
4547;SDS011;2286;51.570;7.090;2022-07-18T07:05:01;9.33;;;2.70;;
4547;SDS011;2286;51.570;7.090;2022-07-18T07:07:28;9.23;;;2.47;;
4547;SDS011;2286;51.570;7.090;2022-07-18T07:09:55;10.40;;;2.40;;
4547;SDS011;2286;51.570;7.090;2022-07-18T07:12:22;4.90;;;2.10;;
4547;SDS011;2286;51.570;7.090;2022-07-18T07:14:49;4.80;;;2.77;;
4547;SDS011;2286;51.570;7.090;2022-07-18T07:17:15;7.27;;;2.10;;
4547;SDS011;2286;51.570;7.090;2022-07-18T07:19:43;4.77;;;2.60;;
4547;SDS011;2286;51.570;7.090;2022-07-18T07:22:11;3.50;;;1.90;;
4547;SDS011;2286;51.570;7.090;2022-07-18T07:24:38;5.17;;;2.17;;
4547;SDS011;2286;51.570;7.090;2022-07-18T07:27:05;2.80;;;1.87;;
4547;SDS011;2286;51.570;7.090;2022-07-18T07:29:32;5.83;;;2.27;;
4547;SDS011;2286;51.570;7.090;2022-07-18T07:31:59;7.33;;;2.20;;
4547;SDS011;2286;51.570;7.090;2022-07-18T07:34:25;10.17;;;3.00;;
4547;SDS011;2286;51.570;7.090;2022-07-18T07:36:53;8.63;;;2.07;;
4547;SDS011;2286;51.570;7.090;2022-07-18T07:39:21;6.47;;;1.83;;
4547;SDS011;2286;51.570;7.090;2022-07-18T07:41:48;4.50;;;2.03;;
4547;SDS011;2286;51.570;7.090;2022-07-18T07:44:15;6.60;;;2.00;;
4547;SDS011;2286;51.570;7.090;2022-07-18T07:46:42;7.47;;;2.07;;
4547;SDS011;2286;51.570;7.090;2022-07-18T07:49:09;6.00;;;2.33;;
4547;SDS011;2286;51.570;7.090;2022-07-18T07:51:36;4.60;;;1.70;;
4547;SDS011;2286;51.570;7.090;2022-07-18T07:54:03;3.87;;;2.03;;
4547;SDS011;2286;51.570;7.090;2022-07-18T07:56:32;4.30;;;1.80;;
4547;SDS011;2286;51.570;7.090;2022-07-18T07:58:59;4.97;;;2.10;;
4547;SDS011;2286;51.570;7.090;2022-07-18T08:01:26;5.17;;;1.73;;
4547;SDS011;2286;51.570;7.090;2022-07-18T08:03:53;2.87;;;1.77;;
4547;SDS011;2286;51.570;7.090;2022-07-18T08:06:20;2.20;;;1.77;;
4547;SDS011;2286;51.570;7.090;2022-07-18T08:08:47;5.07;;;1.57;;
4547;SDS011;2286;51.570;7.090;2022-07-18T08:11:14;4.10;;;2.17;;
4547;SDS011;2286;51.570;7.090;2022-07-18T08:13:42;5.97;;;1.63;;
4547;SDS011;2286;51.570;7.090;2022-07-18T08:16:09;4.10;;;1.60;;
4547;SDS011;2286;51.570;7.090;2022-07-18T08:18:36;2.80;;;1.50;;
4547;SDS011;2286;51.570;7.090;2022-07-18T08:21:02;5.10;;;1.70;;
4547;SDS011;2286;51.570;7.090;2022-07-18T08:23:29;3.77;;;1.43;;
4547;SDS011;2286;51.570;7.090;2022-07-18T08:25:56;2.80;;;1.50;;
4547;SDS011;2286;51.570;7.090;2022-07-18T08:28:23;2.90;;;1.47;;
4547;SDS011;2286;51.570;7.090;2022-07-18T08:30:51;7.90;;;2.13;;
4547;SDS011;2286;51.570;7.090;2022-07-18T08:33:18;1.97;;;1.60;;
4547;SDS011;2286;51.570;7.090;2022-07-18T08:35:45;2.90;;;1.60;;
4547;SDS011;2286;51.570;7.090;2022-07-18T08:38:12;2.83;;;2.20;;
4547;SDS011;2286;51.570;7.090;2022-07-18T08:40:39;2.50;;;1.47;;
4547;SDS011;2286;51.570;7.090;2022-07-18T08:43:06;2.07;;;1.30;;
4547;SDS011;2286;51.570;7.090;2022-07-18T08:45:33;3.87;;;1.47;;
4547;SDS011;2286;51.570;7.090;2022-07-18T08:48:01;2.23;;;1.63;;
4547;SDS011;2286;51.570;7.090;2022-07-18T08:50:29;3.57;;;1.27;;
4547;SDS011;2286;51.570;7.090;2022-07-18T08:52:56;7.97;;;1.80;;
4547;SDS011;2286;51.570;7.090;2022-07-18T08:55:23;3.43;;;1.33;;
4547;SDS011;2286;51.570;7.090;2022-07-18T08:57:50;3.90;;;1.40;;
4547;SDS011;2286;51.570;7.090;2022-07-18T09:00:17;2.00;;;1.30;;
4547;SDS011;2286;51.570;7.090;2022-07-18T09:02:45;2.90;;;1.70;;
4547;SDS011;2286;51.570;7.090;2022-07-18T09:05:18;4.73;;;1.80;;
4547;SDS011;2286;51.570;7.090;2022-07-18T09:07:46;3.30;;;1.47;;
4547;SDS011;2286;51.570;7.090;2022-07-18T09:10:14;2.90;;;1.80;;
4547;SDS011;2286;51.570;7.090;2022-07-18T09:12:43;3.20;;;1.70;;
4547;SDS011;2286;51.570;7.090;2022-07-18T09:15:21;4.77;;;1.50;;
4547;SDS011;2286;51.570;7.090;2022-07-18T09:17:48;6.53;;;1.93;;
4547;SDS011;2286;51.570;7.090;2022-07-18T09:20:17;3.50;;;1.50;;
4547;SDS011;2286;51.570;7.090;2022-07-18T09:22:45;6.97;;;1.60;;
4547;SDS011;2286;51.570;7.090;2022-07-18T09:25:13;4.03;;;1.53;;
4547;SDS011;2286;51.570;7.090;2022-07-18T09:27:42;5.03;;;1.73;;
4547;SDS011;2286;51.570;7.090;2022-07-18T09:30:17;3.60;;;1.70;;
4547;SDS011;2286;51.570;7.090;2022-07-18T09:32:47;3.70;;;1.20;;
4547;SDS011;2286;51.570;7.090;2022-07-18T09:35:18;2.83;;;1.53;;
4547;SDS011;2286;51.570;7.090;2022-07-18T09:37:51;5.70;;;1.47;;
4547;SDS011;2286;51.570;7.090;2022-07-18T09:40:20;3.17;;;1.83;;
4547;SDS011;2286;51.570;7.090;2022-07-18T09:42:49;3.30;;;1.70;;
4547;SDS011;2286;51.570;7.090;2022-07-18T09:45:21;1.83;;;1.50;;
4547;SDS011;2286;51.570;7.090;2022-07-18T09:47:49;2.27;;;1.23;;
4547;SDS011;2286;51.570;7.090;2022-07-18T09:50:23;2.13;;;1.73;;
4547;SDS011;2286;51.570;7.090;2022-07-18T09:52:59;2.20;;;1.40;;
4547;SDS011;2286;51.570;7.090;2022-07-18T09:55:41;2.20;;;1.90;;
4547;SDS011;2286;51.570;7.090;2022-07-18T09:58:09;2.23;;;1.60;;
4547;SDS011;2286;51.570;7.090;2022-07-18T10:00:37;3.47;;;1.80;;
4547;SDS011;2286;51.570;7.090;2022-07-18T10:03:06;3.33;;;1.40;;
4547;SDS011;2286;51.570;7.090;2022-07-18T10:05:36;1.73;;;1.50;;
4547;SDS011;2286;51.570;7.090;2022-07-18T10:08:04;2.03;;;1.60;;
4547;SDS011;2286;51.570;7.090;2022-07-18T10:10:32;2.23;;;1.40;;
4547;SDS011;2286;51.570;7.090;2022-07-18T10:13:01;2.97;;;1.30;;
4547;SDS011;2286;51.570;7.090;2022-07-18T10:15:29;3.83;;;1.70;;
4547;SDS011;2286;51.570;7.090;2022-07-18T10:17:57;4.33;;;1.57;;
4547;SDS011;2286;51.570;7.090;2022-07-18T10:20:26;7.40;;;2.17;;
4547;SDS011;2286;51.570;7.090;2022-07-18T10:22:58;4.03;;;1.87;;
4547;SDS011;2286;51.570;7.090;2022-07-18T10:25:28;1.70;;;1.60;;
4547;SDS011;2286;51.570;7.090;2022-07-18T10:28:01;3.40;;;1.60;;
4547;SDS011;2286;51.570;7.090;2022-07-18T10:36:06;1.60;;;1.50;;
4547;SDS011;2286;51.570;7.090;2022-07-18T10:38:36;7.10;;;2.10;;
4547;SDS011;2286;51.570;7.090;2022-07-18T10:41:04;1.83;;;1.60;;
4547;SDS011;2286;51.570;7.090;2022-07-18T10:43:34;4.47;;;1.73;;
4547;SDS011;2286;51.570;7.090;2022-07-18T10:46:05;3.57;;;1.80;;
4547;SDS011;2286;51.570;7.090;2022-07-18T10:48:50;3.07;;;1.80;;
4547;SDS011;2286;51.570;7.090;2022-07-18T10:51:19;3.23;;;1.50;;
4547;SDS011;2286;51.570;7.090;2022-07-18T10:54:10;11.60;;;2.60;;
4547;SDS011;2286;51.570;7.090;2022-07-18T10:59:34;4.20;;;3.80;;
4547;SDS011;2286;51.570;7.090;2022-07-18T11:02:03;3.10;;;2.43;;
4547;SDS011;2286;51.570;7.090;2022-07-18T11:04:33;5.13;;;2.20;;
4547;SDS011;2286;51.570;7.090;2022-07-18T11:07:06;4.47;;;1.60;;
4547;SDS011;2286;51.570;7.090;2022-07-18T11:09:38;3.93;;;1.90;;
4547;SDS011;2286;51.570;7.090;2022-07-18T11:12:20;3.47;;;3.17;;
4547;SDS011;2286;51.570;7.090;2022-07-18T11:14:59;2.40;;;2.30;;
4547;SDS011;2286;51.570;7.090;2022-07-18T11:20:23;6.10;;;2.10;;
4547;SDS011;2286;51.570;7.090;2022-07-18T11:23:02;3.87;;;2.23;;
4547;SDS011;2286;51.570;7.090;2022-07-18T11:25:31;7.80;;;2.03;;
4547;SDS011;2286;51.570;7.090;2022-07-18T11:27:58;3.23;;;1.70;;
4547;SDS011;2286;51.570;7.090;2022-07-18T11:30:25;3.73;;;1.60;;
4547;SDS011;2286;51.570;7.090;2022-07-18T11:32:52;2.90;;;1.87;;
4547;SDS011;2286;51.570;7.090;2022-07-18T11:35:21;6.60;;;2.30;;
4547;SDS011;2286;51.570;7.090;2022-07-18T11:37:50;3.40;;;2.53;;
4547;SDS011;2286;51.570;7.090;2022-07-18T11:40:18;3.33;;;2.33;;
4547;SDS011;2286;51.570;7.090;2022-07-18T11:42:46;3.80;;;2.57;;
4547;SDS011;2286;51.570;7.090;2022-07-18T11:45:15;2.60;;;1.57;;
4547;SDS011;2286;51.570;7.090;2022-07-18T11:47:46;3.90;;;1.77;;
4547;SDS011;2286;51.570;7.090;2022-07-18T11:50:14;2.63;;;1.97;;
4547;SDS011;2286;51.570;7.090;2022-07-18T11:52:42;3.30;;;2.07;;
4547;SDS011;2286;51.570;7.090;2022-07-18T11:55:11;5.80;;;2.27;;
4547;SDS011;2286;51.570;7.090;2022-07-18T11:57:39;1.90;;;1.70;;
4547;SDS011;2286;51.570;7.090;2022-07-18T12:00:19;3.67;;;1.70;;
4547;SDS011;2286;51.570;7.090;2022-07-18T12:05:36;2.60;;;2.40;;
4547;SDS011;2286;51.570;7.090;2022-07-18T12:11:06;5.80;;;3.07;;
4547;SDS011;2286;51.570;7.090;2022-07-18T12:13:39;2.13;;;1.93;;
4547;SDS011;2286;51.570;7.090;2022-07-18T12:16:22;5.03;;;1.97;;
4547;SDS011;2286;51.570;7.090;2022-07-18T12:18:54;2.80;;;2.07;;
4547;SDS011;2286;51.570;7.090;2022-07-18T12:21:21;2.97;;;2.07;;
4547;SDS011;2286;51.570;7.090;2022-07-18T12:23:49;3.77;;;2.13;;
4547;SDS011;2286;51.570;7.090;2022-07-18T12:26:25;5.00;;;1.90;;
4547;SDS011;2286;51.570;7.090;2022-07-18T12:29:03;1.97;;;1.57;;
4547;SDS011;2286;51.570;7.090;2022-07-18T12:31:42;3.10;;;2.53;;
4547;SDS011;2286;51.570;7.090;2022-07-18T12:34:10;3.53;;;1.93;;
4547;SDS011;2286;51.570;7.090;2022-07-18T12:36:52;9.50;;;2.10;;
4547;SDS011;2286;51.570;7.090;2022-07-18T12:39:28;2.87;;;1.80;;
4547;SDS011;2286;51.570;7.090;2022-07-18T12:41:57;3.83;;;1.90;;
4547;SDS011;2286;51.570;7.090;2022-07-18T12:44:25;3.10;;;1.80;;
4547;SDS011;2286;51.570;7.090;2022-07-18T12:46:54;4.70;;;1.90;;
4547;SDS011;2286;51.570;7.090;2022-07-18T12:49:21;4.53;;;2.03;;
4547;SDS011;2286;51.570;7.090;2022-07-18T12:51:48;9.03;;;2.20;;
4547;SDS011;2286;51.570;7.090;2022-07-18T12:54:16;6.03;;;2.40;;
4547;SDS011;2286;51.570;7.090;2022-07-18T12:56:43;5.57;;;2.90;;
4547;SDS011;2286;51.570;7.090;2022-07-18T12:59:10;4.10;;;2.50;;
4547;SDS011;2286;51.570;7.090;2022-07-18T13:01:37;2.20;;;2.00;;
4547;SDS011;2286;51.570;7.090;2022-07-18T13:04:05;6.30;;;2.40;;
4547;SDS011;2286;51.570;7.090;2022-07-18T13:06:32;8.03;;;1.93;;
4547;SDS011;2286;51.570;7.090;2022-07-18T13:08:59;2.80;;;2.50;;
4547;SDS011;2286;51.570;7.090;2022-07-18T13:11:26;2.77;;;1.97;;
4547;SDS011;2286;51.570;7.090;2022-07-18T13:13:53;4.17;;;2.10;;
4547;SDS011;2286;51.570;7.090;2022-07-18T13:16:20;4.90;;;2.50;;
4547;SDS011;2286;51.570;7.090;2022-07-18T13:18:47;4.23;;;2.20;;
4547;SDS011;2286;51.570;7.090;2022-07-18T13:21:15;3.50;;;2.43;;
4547;SDS011;2286;51.570;7.090;2022-07-18T13:23:43;2.60;;;2.40;;
4547;SDS011;2286;51.570;7.090;2022-07-18T13:26:10;3.80;;;2.63;;
4547;SDS011;2286;51.570;7.090;2022-07-18T13:28:37;3.40;;;2.20;;
4547;SDS011;2286;51.570;7.090;2022-07-18T13:31:04;3.93;;;2.20;;
4547;SDS011;2286;51.570;7.090;2022-07-18T13:33:31;6.27;;;2.00;;
4547;SDS011;2286;51.570;7.090;2022-07-18T13:35:58;7.43;;;2.90;;
4547;SDS011;2286;51.570;7.090;2022-07-18T13:38:26;3.43;;;1.90;;
4547;SDS011;2286;51.570;7.090;2022-07-18T13:40:53;3.17;;;2.60;;
4547;SDS011;2286;51.570;7.090;2022-07-18T13:43:20;3.57;;;2.20;;
4547;SDS011;2286;51.570;7.090;2022-07-18T13:45:47;6.20;;;2.17;;
4547;SDS011;2286;51.570;7.090;2022-07-18T13:48:14;3.93;;;2.30;;
4547;SDS011;2286;51.570;7.090;2022-07-18T13:50:40;7.40;;;2.47;;
4547;SDS011;2286;51.570;7.090;2022-07-18T13:53:07;3.47;;;2.23;;
4547;SDS011;2286;51.570;7.090;2022-07-18T13:55:35;11.83;;;2.40;;
4547;SDS011;2286;51.570;7.090;2022-07-18T13:58:02;6.50;;;3.20;;
4547;SDS011;2286;51.570;7.090;2022-07-18T14:00:29;5.17;;;2.13;;
4547;SDS011;2286;51.570;7.090;2022-07-18T14:02:56;2.80;;;2.33;;
4547;SDS011;2286;51.570;7.090;2022-07-18T14:05:23;4.43;;;1.73;;
4547;SDS011;2286;51.570;7.090;2022-07-18T14:07:50;3.60;;;3.30;;
4547;SDS011;2286;51.570;7.090;2022-07-18T14:10:17;5.37;;;2.10;;
4547;SDS011;2286;51.570;7.090;2022-07-18T14:12:46;4.30;;;2.50;;
4547;SDS011;2286;51.570;7.090;2022-07-18T14:15:13;3.10;;;2.90;;
4547;SDS011;2286;51.570;7.090;2022-07-18T14:17:40;2.67;;;2.13;;
4547;SDS011;2286;51.570;7.090;2022-07-18T14:20:07;4.93;;;2.13;;
4547;SDS011;2286;51.570;7.090;2022-07-18T14:22:35;2.70;;;2.20;;
4547;SDS011;2286;51.570;7.090;2022-07-18T14:25:02;4.70;;;2.00;;
4547;SDS011;2286;51.570;7.090;2022-07-18T14:27:29;2.40;;;1.77;;
4547;SDS011;2286;51.570;7.090;2022-07-18T14:29:58;3.77;;;1.80;;
4547;SDS011;2286;51.570;7.090;2022-07-18T14:32:25;5.10;;;2.10;;
4547;SDS011;2286;51.570;7.090;2022-07-18T14:34:52;2.23;;;1.97;;
4547;SDS011;2286;51.570;7.090;2022-07-18T14:37:19;3.33;;;2.33;;
4547;SDS011;2286;51.570;7.090;2022-07-18T14:39:46;1.93;;;1.70;;
4547;SDS011;2286;51.570;7.090;2022-07-18T14:42:12;3.63;;;2.40;;
4547;SDS011;2286;51.570;7.090;2022-07-18T14:44:39;3.37;;;2.20;;
4547;SDS011;2286;51.570;7.090;2022-07-18T14:47:07;5.30;;;2.50;;
4547;SDS011;2286;51.570;7.090;2022-07-18T14:49:35;4.80;;;2.63;;
4547;SDS011;2286;51.570;7.090;2022-07-18T14:52:02;4.47;;;2.40;;
4547;SDS011;2286;51.570;7.090;2022-07-18T14:54:29;4.90;;;3.50;;
4547;SDS011;2286;51.570;7.090;2022-07-18T14:56:56;4.50;;;2.97;;
4547;SDS011;2286;51.570;7.090;2022-07-18T14:59:22;5.73;;;3.20;;
4547;SDS011;2286;51.570;7.090;2022-07-18T15:01:49;2.63;;;2.40;;
4547;SDS011;2286;51.570;7.090;2022-07-18T15:04:18;3.50;;;2.23;;
4547;SDS011;2286;51.570;7.090;2022-07-18T15:06:45;4.57;;;2.23;;
4547;SDS011;2286;51.570;7.090;2022-07-18T15:09:12;2.37;;;2.17;;
4547;SDS011;2286;51.570;7.090;2022-07-18T15:11:39;3.70;;;2.23;;
4547;SDS011;2286;51.570;7.090;2022-07-18T15:14:06;2.80;;;1.90;;
4547;SDS011;2286;51.570;7.090;2022-07-18T15:16:33;3.70;;;2.17;;
4547;SDS011;2286;51.570;7.090;2022-07-18T15:19:00;6.70;;;3.13;;
4547;SDS011;2286;51.570;7.090;2022-07-18T15:21:29;2.73;;;1.87;;
4547;SDS011;2286;51.570;7.090;2022-07-18T15:23:56;9.20;;;1.90;;
4547;SDS011;2286;51.570;7.090;2022-07-18T15:26:23;4.17;;;2.40;;
4547;SDS011;2286;51.570;7.090;2022-07-18T15:28:50;5.70;;;2.57;;
4547;SDS011;2286;51.570;7.090;2022-07-18T15:31:17;3.10;;;2.90;;
4547;SDS011;2286;51.570;7.090;2022-07-18T15:33:44;2.90;;;2.00;;
4547;SDS011;2286;51.570;7.090;2022-07-18T15:36:11;2.40;;;1.83;;
4547;SDS011;2286;51.570;7.090;2022-07-18T15:38:39;3.13;;;2.00;;